sensor_id;sensor_type;location;lat;lon;timestamp;temperature;humidity
29241;DHT22;16268;49.880;8.648;2022-09-13T00:00:39;17.30;99.90
29241;DHT22;16268;49.880;8.648;2022-09-13T00:03:06;17.30;99.90
29241;DHT22;16268;49.880;8.648;2022-09-13T00:05:32;17.20;99.90
29241;DHT22;16268;49.880;8.648;2022-09-13T00:07:57;17.20;99.90
29241;DHT22;16268;49.880;8.648;2022-09-13T00:10:24;17.20;99.90
29241;DHT22;16268;49.880;8.648;2022-09-13T00:12:51;17.10;99.90
29241;DHT22;16268;49.880;8.648;2022-09-13T00:15:17;17.00;99.90
29241;DHT22;16268;49.880;8.648;2022-09-13T00:17:42;16.90;99.90
29241;DHT22;16268;49.880;8.648;2022-09-13T00:20:08;16.90;99.90
29241;DHT22;16268;49.880;8.648;2022-09-13T00:22:34;16.90;99.90
29241;DHT22;16268;49.880;8.648;2022-09-13T00:25:00;16.90;99.90
29241;DHT22;16268;49.880;8.648;2022-09-13T00:27:26;16.80;99.90
29241;DHT22;16268;49.880;8.648;2022-09-13T00:29:51;16.80;99.90
29241;DHT22;16268;49.880;8.648;2022-09-13T00:32:17;16.70;99.90
29241;DHT22;16268;49.880;8.648;2022-09-13T00:34:42;16.70;99.90
29241;DHT22;16268;49.880;8.648;2022-09-13T00:37:08;16.70;99.90
29241;DHT22;16268;49.880;8.648;2022-09-13T00:39:34;16.60;99.90
29241;DHT22;16268;49.880;8.648;2022-09-13T00:42:00;16.50;99.90
29241;DHT22;16268;49.880;8.648;2022-09-13T00:47:39;16.30;99.90
29241;DHT22;16268;49.880;8.648;2022-09-13T00:53:08;16.00;99.90
29241;DHT22;16268;49.880;8.648;2022-09-13T00:55:41;15.90;99.90
29241;DHT22;16268;49.880;8.648;2022-09-13T00:58:11;15.80;99.90
29241;DHT22;16268;49.880;8.648;2022-09-13T01:00:38;15.80;99.90
29241;DHT22;16268;49.880;8.648;2022-09-13T01:03:07;15.70;99.90
29241;DHT22;16268;49.880;8.648;2022-09-13T01:05:39;15.60;99.90
29241;DHT22;16268;49.880;8.648;2022-09-13T01:08:07;15.70;99.90
29241;DHT22;16268;49.880;8.648;2022-09-13T01:10:46;15.70;99.90
29241;DHT22;16268;49.880;8.648;2022-09-13T01:13:23;15.70;99.90
29241;DHT22;16268;49.880;8.648;2022-09-13T01:15:49;15.50;99.90
29241;DHT22;16268;49.880;8.648;2022-09-13T01:18:16;15.50;99.90
29241;DHT22;16268;49.880;8.648;2022-09-13T01:29:45;15.60;99.90
29241;DHT22;16268;49.880;8.648;2022-09-13T01:33:03;15.50;99.90
29241;DHT22;16268;49.880;8.648;2022-09-13T01:35:20;15.60;99.90
29241;DHT22;16268;49.880;8.648;2022-09-13T01:37:59;15.80;99.90
29241;DHT22;16268;49.880;8.648;2022-09-13T01:43:34;15.80;99.90
29241;DHT22;16268;49.880;8.648;2022-09-13T01:46:17;15.80;99.90
29241;DHT22;16268;49.880;8.648;2022-09-13T01:49:09;15.80;99.90
29241;DHT22;16268;49.880;8.648;2022-09-13T01:54:47;15.40;99.90
29241;DHT22;16268;49.880;8.648;2022-09-13T01:57:15;15.20;99.90
29241;DHT22;16268;49.880;8.648;2022-09-13T01:59:49;15.20;99.90
29241;DHT22;16268;49.880;8.648;2022-09-13T02:02:29;15.30;99.90
29241;DHT22;16268;49.880;8.648;2022-09-13T02:05:04;15.30;99.90
29241;DHT22;16268;49.880;8.648;2022-09-13T02:07:35;15.30;99.90
29241;DHT22;16268;49.880;8.648;2022-09-13T02:10:29;15.30;99.90
29241;DHT22;16268;49.880;8.648;2022-09-13T02:12:54;15.30;99.90
29241;DHT22;16268;49.880;8.648;2022-09-13T02:15:33;15.30;99.90
29241;DHT22;16268;49.880;8.648;2022-09-13T02:18:08;15.40;99.90
29241;DHT22;16268;49.880;8.648;2022-09-13T02:20:37;15.40;99.90
29241;DHT22;16268;49.880;8.648;2022-09-13T02:23:13;15.40;99.90
29241;DHT22;16268;49.880;8.648;2022-09-13T02:25:40;15.50;99.90
29241;DHT22;16268;49.880;8.648;2022-09-13T02:28:09;15.40;99.90
29241;DHT22;16268;49.880;8.648;2022-09-13T02:30:39;15.50;99.90
29241;DHT22;16268;49.880;8.648;2022-09-13T02:33:11;15.50;99.90
29241;DHT22;16268;49.880;8.648;2022-09-13T02:35:41;15.50;99.90
29241;DHT22;16268;49.880;8.648;2022-09-13T02:38:22;15.50;99.90
29241;DHT22;16268;49.880;8.648;2022-09-13T02:40:59;15.50;99.90
29241;DHT22;16268;49.880;8.648;2022-09-13T02:43:34;15.50;99.90
29241;DHT22;16268;49.880;8.648;2022-09-13T02:54:53;15.70;99.90
29241;DHT22;16268;49.880;8.648;2022-09-13T02:57:41;15.70;99.90
29241;DHT22;16268;49.880;8.648;2022-09-13T03:00:12;15.70;99.90
29241;DHT22;16268;49.880;8.648;2022-09-13T03:02:39;15.60;99.90
29241;DHT22;16268;49.880;8.648;2022-09-13T03:05:07;15.70;99.90
29241;DHT22;16268;49.880;8.648;2022-09-13T03:07:32;15.70;99.90
29241;DHT22;16268;49.880;8.648;2022-09-13T03:10:01;15.60;99.90
29241;DHT22;16268;49.880;8.648;2022-09-13T03:12:54;15.70;99.90
29241;DHT22;16268;49.880;8.648;2022-09-13T03:24:05;15.70;99.90
29241;DHT22;16268;49.880;8.648;2022-09-13T03:43:06;15.80;99.90
29241;DHT22;16268;49.880;8.648;2022-09-13T03:45:37;15.80;99.90
29241;DHT22;16268;49.880;8.648;2022-09-13T03:48:06;15.80;99.90
29241;DHT22;16268;49.880;8.648;2022-09-13T03:50:32;16.00;99.90
29241;DHT22;16268;49.880;8.648;2022-09-13T03:53:02;16.00;99.90
29241;DHT22;16268;49.880;8.648;2022-09-13T03:55:31;16.10;99.90
29241;DHT22;16268;49.880;8.648;2022-09-13T03:57:57;16.20;99.90
29241;DHT22;16268;49.880;8.648;2022-09-13T04:00:22;16.20;99.90
29241;DHT22;16268;49.880;8.648;2022-09-13T04:02:48;16.30;99.90
29241;DHT22;16268;49.880;8.648;2022-09-13T04:05:14;16.20;99.90
29241;DHT22;16268;49.880;8.648;2022-09-13T04:07:39;16.10;99.90
29241;DHT22;16268;49.880;8.648;2022-09-13T04:10:05;16.00;99.90
29241;DHT22;16268;49.880;8.648;2022-09-13T04:12:31;16.00;99.90
29241;DHT22;16268;49.880;8.648;2022-09-13T04:14:57;15.90;99.90
29241;DHT22;16268;49.880;8.648;2022-09-13T04:17:22;15.90;99.90
29241;DHT22;16268;49.880;8.648;2022-09-13T04:19:48;16.00;99.90
29241;DHT22;16268;49.880;8.648;2022-09-13T04:22:14;16.00;99.90
29241;DHT22;16268;49.880;8.648;2022-09-13T04:24:40;16.00;99.90
29241;DHT22;16268;49.880;8.648;2022-09-13T04:27:07;16.00;99.90
29241;DHT22;16268;49.880;8.648;2022-09-13T04:29:33;16.00;99.90
29241;DHT22;16268;49.880;8.648;2022-09-13T04:31:59;16.00;99.90
29241;DHT22;16268;49.880;8.648;2022-09-13T04:34:24;16.00;99.90
29241;DHT22;16268;49.880;8.648;2022-09-13T04:36:51;16.00;99.90
29241;DHT22;16268;49.880;8.648;2022-09-13T04:39:18;16.10;99.90
29241;DHT22;16268;49.880;8.648;2022-09-13T04:41:45;16.10;99.90
29241;DHT22;16268;49.880;8.648;2022-09-13T04:44:13;16.00;99.90
29241;DHT22;16268;49.880;8.648;2022-09-13T04:46:39;16.00;99.90
29241;DHT22;16268;49.880;8.648;2022-09-13T04:49:06;16.00;99.90
29241;DHT22;16268;49.880;8.648;2022-09-13T04:51:33;16.00;99.90
29241;DHT22;16268;49.880;8.648;2022-09-13T04:53:59;16.00;99.90
29241;DHT22;16268;49.880;8.648;2022-09-13T04:56:25;16.00;99.90
29241;DHT22;16268;49.880;8.648;2022-09-13T04:58:51;16.00;99.90
29241;DHT22;16268;49.880;8.648;2022-09-13T05:01:17;16.10;99.90
29241;DHT22;16268;49.880;8.648;2022-09-13T05:03:42;16.20;99.90
29241;DHT22;16268;49.880;8.648;2022-09-13T05:06:10;16.20;99.90
29241;DHT22;16268;49.880;8.648;2022-09-13T05:08:37;16.20;99.90
29241;DHT22;16268;49.880;8.648;2022-09-13T05:11:04;16.10;99.90
29241;DHT22;16268;49.880;8.648;2022-09-13T05:13:29;16.20;99.90
29241;DHT22;16268;49.880;8.648;2022-09-13T05:15:56;16.30;99.90
29241;DHT22;16268;49.880;8.648;2022-09-13T05:18:25;16.40;99.90
29241;DHT22;16268;49.880;8.648;2022-09-13T05:20:55;16.40;99.90
29241;DHT22;16268;49.880;8.648;2022-09-13T05:23:22;16.40;99.90
29241;DHT22;16268;49.880;8.648;2022-09-13T05:28:20;16.40;99.90
29241;DHT22;16268;49.880;8.648;2022-09-13T05:30:56;16.40;99.90
29241;DHT22;16268;49.880;8.648;2022-09-13T05:33:23;16.50;99.90
29241;DHT22;16268;49.880;8.648;2022-09-13T05:35:49;16.50;99.90
29241;DHT22;16268;49.880;8.648;2022-09-13T05:38:15;16.50;99.90
29241;DHT22;16268;49.880;8.648;2022-09-13T05:40:40;16.50;99.90
29241;DHT22;16268;49.880;8.648;2022-09-13T05:43:06;16.50;99.90
29241;DHT22;16268;49.880;8.648;2022-09-13T05:45:31;16.60;99.90
29241;DHT22;16268;49.880;8.648;2022-09-13T05:47:57;16.70;99.90
29241;DHT22;16268;49.880;8.648;2022-09-13T05:50:22;16.80;99.90
29241;DHT22;16268;49.880;8.648;2022-09-13T05:52:52;16.80;99.90
29241;DHT22;16268;49.880;8.648;2022-09-13T05:55:18;16.70;99.90
29241;DHT22;16268;49.880;8.648;2022-09-13T05:57:43;16.50;99.90
29241;DHT22;16268;49.880;8.648;2022-09-13T06:00:09;16.60;99.90
29241;DHT22;16268;49.880;8.648;2022-09-13T06:02:35;16.80;99.90
29241;DHT22;16268;49.880;8.648;2022-09-13T06:05:00;16.90;99.90
29241;DHT22;16268;49.880;8.648;2022-09-13T06:07:26;16.90;99.90
29241;DHT22;16268;49.880;8.648;2022-09-13T06:09:53;16.90;99.90
29241;DHT22;16268;49.880;8.648;2022-09-13T06:12:18;16.90;99.90
29241;DHT22;16268;49.880;8.648;2022-09-13T06:14:44;16.90;99.90
29241;DHT22;16268;49.880;8.648;2022-09-13T06:17:09;16.90;99.90
29241;DHT22;16268;49.880;8.648;2022-09-13T06:19:35;17.00;99.90
29241;DHT22;16268;49.880;8.648;2022-09-13T06:22:01;17.00;99.90
29241;DHT22;16268;49.880;8.648;2022-09-13T06:24:26;17.00;99.90
29241;DHT22;16268;49.880;8.648;2022-09-13T06:26:52;17.00;99.90
29241;DHT22;16268;49.880;8.648;2022-09-13T06:29:18;17.00;99.90
29241;DHT22;16268;49.880;8.648;2022-09-13T06:31:44;17.00;99.90
29241;DHT22;16268;49.880;8.648;2022-09-13T06:34:11;17.10;99.90
29241;DHT22;16268;49.880;8.648;2022-09-13T06:36:40;17.20;99.90
29241;DHT22;16268;49.880;8.648;2022-09-13T06:39:06;17.30;99.90
29241;DHT22;16268;49.880;8.648;2022-09-13T06:41:32;17.40;99.90
29241;DHT22;16268;49.880;8.648;2022-09-13T06:43:59;17.40;99.90
29241;DHT22;16268;49.880;8.648;2022-09-13T06:46:27;17.40;99.90
29241;DHT22;16268;49.880;8.648;2022-09-13T06:48:54;17.30;99.90
29241;DHT22;16268;49.880;8.648;2022-09-13T06:51:24;17.40;99.90
29241;DHT22;16268;49.880;8.648;2022-09-13T06:53:51;17.40;99.90
29241;DHT22;16268;49.880;8.648;2022-09-13T06:56:23;17.30;99.90
29241;DHT22;16268;49.880;8.648;2022-09-13T06:58:53;17.20;99.90
29241;DHT22;16268;49.880;8.648;2022-09-13T07:03:51;17.20;99.90
29241;DHT22;16268;49.880;8.648;2022-09-13T07:06:19;17.30;99.90
29241;DHT22;16268;49.880;8.648;2022-09-13T07:08:46;17.40;99.90
29241;DHT22;16268;49.880;8.648;2022-09-13T07:11:13;17.50;99.90
29241;DHT22;16268;49.880;8.648;2022-09-13T07:13:39;17.60;99.90
29241;DHT22;16268;49.880;8.648;2022-09-13T07:16:10;17.60;99.90
29241;DHT22;16268;49.880;8.648;2022-09-13T07:18:36;17.70;99.90
29241;DHT22;16268;49.880;8.648;2022-09-13T07:21:09;17.80;99.90
29241;DHT22;16268;49.880;8.648;2022-09-13T07:23:36;17.90;99.90
29241;DHT22;16268;49.880;8.648;2022-09-13T07:26:03;18.00;99.90
29241;DHT22;16268;49.880;8.648;2022-09-13T07:28:33;18.00;99.90
29241;DHT22;16268;49.880;8.648;2022-09-13T07:31:14;18.10;99.90
29241;DHT22;16268;49.880;8.648;2022-09-13T07:33:41;18.10;99.90
29241;DHT22;16268;49.880;8.648;2022-09-13T07:36:07;18.10;99.90
29241;DHT22;16268;49.880;8.648;2022-09-13T07:38:34;18.10;99.90
29241;DHT22;16268;49.880;8.648;2022-09-13T07:41:01;18.00;99.90
29241;DHT22;16268;49.880;8.648;2022-09-13T07:43:28;18.00;99.90
29241;DHT22;16268;49.880;8.648;2022-09-13T07:46:02;18.00;99.90
29241;DHT22;16268;49.880;8.648;2022-09-13T07:48:29;17.90;99.90
29241;DHT22;16268;49.880;8.648;2022-09-13T07:51:04;17.90;99.90
29241;DHT22;16268;49.880;8.648;2022-09-13T07:53:32;17.80;99.90
29241;DHT22;16268;49.880;8.648;2022-09-13T07:56:09;17.80;99.90
29241;DHT22;16268;49.880;8.648;2022-09-13T07:58:36;17.80;99.90
29241;DHT22;16268;49.880;8.648;2022-09-13T08:03:39;17.70;99.90
29241;DHT22;16268;49.880;8.648;2022-09-13T08:06:05;17.70;99.90
29241;DHT22;16268;49.880;8.648;2022-09-13T08:08:32;17.70;99.90
29241;DHT22;16268;49.880;8.648;2022-09-13T08:10:59;17.70;99.90
29241;DHT22;16268;49.880;8.648;2022-09-13T08:13:25;17.60;99.90
29241;DHT22;16268;49.880;8.648;2022-09-13T08:15:51;17.50;99.90
29241;DHT22;16268;49.880;8.648;2022-09-13T08:18:18;17.60;99.90
29241;DHT22;16268;49.880;8.648;2022-09-13T08:20:43;17.90;99.90
29241;DHT22;16268;49.880;8.648;2022-09-13T08:23:11;18.10;99.90
29241;DHT22;16268;49.880;8.648;2022-09-13T08:25:37;18.40;99.90
29241;DHT22;16268;49.880;8.648;2022-09-13T08:28:14;18.70;99.90
29241;DHT22;16268;49.880;8.648;2022-09-13T08:30:39;18.90;99.90
29241;DHT22;16268;49.880;8.648;2022-09-13T08:33:07;19.40;99.90
29241;DHT22;16268;49.880;8.648;2022-09-13T08:35:33;19.70;99.90
29241;DHT22;16268;49.880;8.648;2022-09-13T08:37:59;20.00;99.90
29241;DHT22;16268;49.880;8.648;2022-09-13T08:40:29;20.20;99.90
29241;DHT22;16268;49.880;8.648;2022-09-13T08:45:20;20.20;99.90
29241;DHT22;16268;49.880;8.648;2022-09-13T08:50:27;20.60;99.90
29241;DHT22;16268;49.880;8.648;2022-09-13T08:55:48;20.80;99.90
29241;DHT22;16268;49.880;8.648;2022-09-13T09:01:07;20.90;99.90
29241;DHT22;16268;49.880;8.648;2022-09-13T09:03:47;20.90;99.90
29241;DHT22;16268;49.880;8.648;2022-09-13T09:06:17;20.90;99.90
29241;DHT22;16268;49.880;8.648;2022-09-13T09:08:47;20.80;99.90
29241;DHT22;16268;49.880;8.648;2022-09-13T09:11:21;20.60;99.90
29241;DHT22;16268;49.880;8.648;2022-09-13T09:14:17;20.50;99.90
29241;DHT22;16268;49.880;8.648;2022-09-13T09:16:50;20.30;99.90
29241;DHT22;16268;49.880;8.648;2022-09-13T09:22:34;19.50;99.90
29241;DHT22;16268;49.880;8.648;2022-09-13T09:25:00;19.40;99.90
29241;DHT22;16268;49.880;8.648;2022-09-13T09:27:29;19.30;99.90
29241;DHT22;16268;49.880;8.648;2022-09-13T09:29:55;19.30;99.90
29241;DHT22;16268;49.880;8.648;2022-09-13T09:32:32;19.40;99.90
29241;DHT22;16268;49.880;8.648;2022-09-13T09:38:13;19.10;99.90
29241;DHT22;16268;49.880;8.648;2022-09-13T09:40:41;19.00;99.90
29241;DHT22;16268;49.880;8.648;2022-09-13T09:43:19;19.10;99.90
29241;DHT22;16268;49.880;8.648;2022-09-13T09:45:51;19.50;99.90
29241;DHT22;16268;49.880;8.648;2022-09-13T09:48:19;19.70;99.90
29241;DHT22;16268;49.880;8.648;2022-09-13T09:50:49;19.70;99.90
29241;DHT22;16268;49.880;8.648;2022-09-13T09:53:21;19.70;99.90
29241;DHT22;16268;49.880;8.648;2022-09-13T09:55:58;19.70;99.90
29241;DHT22;16268;49.880;8.648;2022-09-13T09:58:37;19.70;99.90
29241;DHT22;16268;49.880;8.648;2022-09-13T10:01:04;19.80;99.90
29241;DHT22;16268;49.880;8.648;2022-09-13T10:03:32;19.90;99.90
29241;DHT22;16268;49.880;8.648;2022-09-13T10:06:12;20.00;99.90
29241;DHT22;16268;49.880;8.648;2022-09-13T10:08:40;20.00;99.90
29241;DHT22;16268;49.880;8.648;2022-09-13T10:11:06;19.90;99.90
29241;DHT22;16268;49.880;8.648;2022-09-13T10:13:32;19.90;99.90
29241;DHT22;16268;49.880;8.648;2022-09-13T10:16:03;20.00;99.90
29241;DHT22;16268;49.880;8.648;2022-09-13T10:18:31;20.00;99.90
29241;DHT22;16268;49.880;8.648;2022-09-13T10:21:04;20.10;99.90
29241;DHT22;16268;49.880;8.648;2022-09-13T10:23:31;20.20;99.90
29241;DHT22;16268;49.880;8.648;2022-09-13T10:26:11;20.30;99.90
29241;DHT22;16268;49.880;8.648;2022-09-13T10:28:55;20.30;99.90
29241;DHT22;16268;49.880;8.648;2022-09-13T10:31:30;20.40;99.90
29241;DHT22;16268;49.880;8.648;2022-09-13T10:34:05;20.50;99.90
29241;DHT22;16268;49.880;8.648;2022-09-13T10:36:34;20.40;99.90
29241;DHT22;16268;49.880;8.648;2022-09-13T10:41:28;20.10;99.90
29241;DHT22;16268;49.880;8.648;2022-09-13T10:43:59;20.10;99.90
29241;DHT22;16268;49.880;8.648;2022-09-13T10:46:29;19.90;99.90
29241;DHT22;16268;49.880;8.648;2022-09-13T10:48:55;19.70;99.90
29241;DHT22;16268;49.880;8.648;2022-09-13T10:53:46;19.70;99.90
29241;DHT22;16268;49.880;8.648;2022-09-13T10:56:24;19.90;99.90
29241;DHT22;16268;49.880;8.648;2022-09-13T10:58:50;19.80;99.90
29241;DHT22;16268;49.880;8.648;2022-09-13T11:04:36;20.50;99.90
29241;DHT22;16268;49.880;8.648;2022-09-13T11:07:23;20.90;99.90
29241;DHT22;16268;49.880;8.648;2022-09-13T11:10:01;21.30;99.90
29241;DHT22;16268;49.880;8.648;2022-09-13T11:18:10;22.60;99.90
29241;DHT22;16268;49.880;8.648;2022-09-13T11:20:51;22.70;99.90
29241;DHT22;16268;49.880;8.648;2022-09-13T11:23:51;22.50;99.90
29241;DHT22;16268;49.880;8.648;2022-09-13T11:31:52;22.30;99.90
29241;DHT22;16268;49.880;8.648;2022-09-13T11:39:30;22.10;99.90
29241;DHT22;16268;49.880;8.648;2022-09-13T11:42:15;21.80;99.90
29241;DHT22;16268;49.880;8.648;2022-09-13T11:51:40;22.40;99.90
29241;DHT22;16268;49.880;8.648;2022-09-13T11:56:25;22.50;99.90
29241;DHT22;16268;49.880;8.648;2022-09-13T11:58:56;22.30;99.90
29241;DHT22;16268;49.880;8.648;2022-09-13T12:01:31;22.00;99.90
29241;DHT22;16268;49.880;8.648;2022-09-13T12:06:37;21.50;99.90
29241;DHT22;16268;49.880;8.648;2022-09-13T12:09:19;21.60;99.90
29241;DHT22;16268;49.880;8.648;2022-09-13T12:14:56;21.70;99.90
29241;DHT22;16268;49.880;8.648;2022-09-13T12:17:57;21.90;99.90
29241;DHT22;16268;49.880;8.648;2022-09-13T12:20:39;22.10;99.90
29241;DHT22;16268;49.880;8.648;2022-09-13T12:23:15;22.00;99.90
29241;DHT22;16268;49.880;8.648;2022-09-13T12:25:50;22.10;99.90
29241;DHT22;16268;49.880;8.648;2022-09-13T12:28:53;22.10;99.90
29241;DHT22;16268;49.880;8.648;2022-09-13T12:31:21;22.40;99.90
29241;DHT22;16268;49.880;8.648;2022-09-13T12:33:48;22.40;99.90
29241;DHT22;16268;49.880;8.648;2022-09-13T12:45:16;22.00;99.90
29241;DHT22;16268;49.880;8.648;2022-09-13T12:53:00;22.10;99.90
29241;DHT22;16268;49.880;8.648;2022-09-13T12:58:36;22.10;99.90
29241;DHT22;16268;49.880;8.648;2022-09-13T13:01:13;22.20;99.90
29241;DHT22;16268;49.880;8.648;2022-09-13T13:04:09;22.10;99.90
29241;DHT22;16268;49.880;8.648;2022-09-13T13:06:53;22.10;99.90
29241;DHT22;16268;49.880;8.648;2022-09-13T13:09:32;22.20;99.90
29241;DHT22;16268;49.880;8.648;2022-09-13T13:12:00;22.50;99.90
29241;DHT22;16268;49.880;8.648;2022-09-13T13:19:59;22.80;99.90
29241;DHT22;16268;49.880;8.648;2022-09-13T13:27:52;23.50;99.90
29241;DHT22;16268;49.880;8.648;2022-09-13T13:35:38;23.50;99.90
29241;DHT22;16268;49.880;8.648;2022-09-13T13:40:47;23.50;99.90
29241;DHT22;16268;49.880;8.648;2022-09-13T13:43:27;23.40;99.90
29241;DHT22;16268;49.880;8.648;2022-09-13T13:46:27;23.00;99.90
29241;DHT22;16268;49.880;8.648;2022-09-13T13:48:54;22.70;99.90
29241;DHT22;16268;49.880;8.648;2022-09-13T13:51:24;22.70;99.90
29241;DHT22;16268;49.880;8.648;2022-09-13T13:53:55;22.60;99.90
29241;DHT22;16268;49.880;8.648;2022-09-13T13:56:33;22.70;99.90
29241;DHT22;16268;49.880;8.648;2022-09-13T13:59:14;22.90;99.90
29241;DHT22;16268;49.880;8.648;2022-09-13T14:01:45;22.90;99.90
29241;DHT22;16268;49.880;8.648;2022-09-13T14:06:54;22.90;99.90
29241;DHT22;16268;49.880;8.648;2022-09-13T14:09:55;22.80;99.90
29241;DHT22;16268;49.880;8.648;2022-09-13T14:15:38;22.90;99.90
29241;DHT22;16268;49.880;8.648;2022-09-13T14:18:16;23.00;99.90
29241;DHT22;16268;49.880;8.648;2022-09-13T14:21:24;22.80;99.90
29241;DHT22;16268;49.880;8.648;2022-09-13T14:24:19;22.90;99.90
29241;DHT22;16268;49.880;8.648;2022-09-13T14:26:52;22.80;99.90
29241;DHT22;16268;49.880;8.648;2022-09-13T14:29:21;22.80;99.90
29241;DHT22;16268;49.880;8.648;2022-09-13T14:31:51;22.90;99.90
29241;DHT22;16268;49.880;8.648;2022-09-13T14:34:31;22.80;99.90
29241;DHT22;16268;49.880;8.648;2022-09-13T14:36:58;22.90;99.90
29241;DHT22;16268;49.880;8.648;2022-09-13T14:39:25;22.70;99.90
29241;DHT22;16268;49.880;8.648;2022-09-13T14:41:58;22.50;99.90
29241;DHT22;16268;49.880;8.648;2022-09-13T14:44:26;22.50;99.90
29241;DHT22;16268;49.880;8.648;2022-09-13T14:49:49;22.30;99.90
29241;DHT22;16268;49.880;8.648;2022-09-13T14:52:32;22.40;99.90
29241;DHT22;16268;49.880;8.648;2022-09-13T14:55:03;22.40;99.90
29241;DHT22;16268;49.880;8.648;2022-09-13T14:57:33;22.30;99.90
29241;DHT22;16268;49.880;8.648;2022-09-13T15:02:39;22.10;99.90
29241;DHT22;16268;49.880;8.648;2022-09-13T15:05:12;22.10;99.90
29241;DHT22;16268;49.880;8.648;2022-09-13T15:07:40;22.00;99.90
29241;DHT22;16268;49.880;8.648;2022-09-13T15:10:26;21.90;99.90
29241;DHT22;16268;49.880;8.648;2022-09-13T15:20:26;21.90;99.90
29241;DHT22;16268;49.880;8.648;2022-09-13T15:22:52;21.90;99.90
29241;DHT22;16268;49.880;8.648;2022-09-13T15:25:25;21.90;99.90
29241;DHT22;16268;49.880;8.648;2022-09-13T15:27:55;21.90;99.90
29241;DHT22;16268;49.880;8.648;2022-09-13T15:30:26;21.80;99.90
29241;DHT22;16268;49.880;8.648;2022-09-13T15:35:45;21.30;99.90
29241;DHT22;16268;49.880;8.648;2022-09-13T15:38:26;21.30;99.90
29241;DHT22;16268;49.880;8.648;2022-09-13T15:41:13;21.10;99.90
29241;DHT22;16268;49.880;8.648;2022-09-13T15:43:41;20.90;99.90
29241;DHT22;16268;49.880;8.648;2022-09-13T15:46:12;20.90;99.90
29241;DHT22;16268;49.880;8.648;2022-09-13T15:48:39;20.90;99.90
29241;DHT22;16268;49.880;8.648;2022-09-13T15:51:10;20.80;99.90
29241;DHT22;16268;49.880;8.648;2022-09-13T15:53:38;20.80;99.90
29241;DHT22;16268;49.880;8.648;2022-09-13T15:56:05;20.80;99.90
29241;DHT22;16268;49.880;8.648;2022-09-13T15:58:32;20.80;99.90
29241;DHT22;16268;49.880;8.648;2022-09-13T16:00:58;20.90;99.90
29241;DHT22;16268;49.880;8.648;2022-09-13T16:03:24;21.00;99.90
29241;DHT22;16268;49.880;8.648;2022-09-13T16:05:49;21.00;99.90
29241;DHT22;16268;49.880;8.648;2022-09-13T16:08:15;21.00;99.90
29241;DHT22;16268;49.880;8.648;2022-09-13T16:10:40;20.90;99.90
29241;DHT22;16268;49.880;8.648;2022-09-13T16:13:06;21.00;99.90
29241;DHT22;16268;49.880;8.648;2022-09-13T16:15:31;21.00;99.90
29241;DHT22;16268;49.880;8.648;2022-09-13T16:17:57;21.00;99.90
29241;DHT22;16268;49.880;8.648;2022-09-13T16:20:23;21.00;99.90
29241;DHT22;16268;49.880;8.648;2022-09-13T16:22:48;20.90;99.90
29241;DHT22;16268;49.880;8.648;2022-09-13T16:25:14;20.90;99.90
29241;DHT22;16268;49.880;8.648;2022-09-13T16:27:41;20.90;99.90
29241;DHT22;16268;49.880;8.648;2022-09-13T16:30:10;21.00;99.90
29241;DHT22;16268;49.880;8.648;2022-09-13T16:32:37;20.90;99.90
29241;DHT22;16268;49.880;8.648;2022-09-13T16:35:02;20.80;99.90
29241;DHT22;16268;49.880;8.648;2022-09-13T16:37:28;20.70;99.90
29241;DHT22;16268;49.880;8.648;2022-09-13T16:39:56;20.70;99.90
29241;DHT22;16268;49.880;8.648;2022-09-13T16:42:25;20.60;99.90
29241;DHT22;16268;49.880;8.648;2022-09-13T16:44:50;20.50;99.90
29241;DHT22;16268;49.880;8.648;2022-09-13T16:47:16;20.50;99.90
29241;DHT22;16268;49.880;8.648;2022-09-13T16:49:42;20.50;99.90
29241;DHT22;16268;49.880;8.648;2022-09-13T16:52:08;20.50;99.90
29241;DHT22;16268;49.880;8.648;2022-09-13T16:54:34;20.50;99.90
29241;DHT22;16268;49.880;8.648;2022-09-13T16:57:04;20.60;99.90
29241;DHT22;16268;49.880;8.648;2022-09-13T16:59:31;20.70;99.90
29241;DHT22;16268;49.880;8.648;2022-09-13T17:01:57;20.70;99.90
29241;DHT22;16268;49.880;8.648;2022-09-13T17:04:23;20.70;99.90
29241;DHT22;16268;49.880;8.648;2022-09-13T17:06:49;20.70;99.90
29241;DHT22;16268;49.880;8.648;2022-09-13T17:09:15;20.80;99.90
29241;DHT22;16268;49.880;8.648;2022-09-13T17:11:43;20.70;99.90
29241;DHT22;16268;49.880;8.648;2022-09-13T17:14:10;20.70;99.90
29241;DHT22;16268;49.880;8.648;2022-09-13T17:16:44;20.60;99.90
29241;DHT22;16268;49.880;8.648;2022-09-13T17:19:17;20.60;99.90
29241;DHT22;16268;49.880;8.648;2022-09-13T17:21:43;20.60;99.90
29241;DHT22;16268;49.880;8.648;2022-09-13T17:24:09;20.70;99.90
29241;DHT22;16268;49.880;8.648;2022-09-13T17:26:35;20.70;99.90
29241;DHT22;16268;49.880;8.648;2022-09-13T17:29:00;20.60;99.90
29241;DHT22;16268;49.880;8.648;2022-09-13T17:31:26;20.50;99.90
29241;DHT22;16268;49.880;8.648;2022-09-13T17:33:51;20.50;99.90
29241;DHT22;16268;49.880;8.648;2022-09-13T17:36:18;20.40;99.90
29241;DHT22;16268;49.880;8.648;2022-09-13T17:38:44;20.40;99.90
29241;DHT22;16268;49.880;8.648;2022-09-13T17:41:17;20.40;99.90
29241;DHT22;16268;49.880;8.648;2022-09-13T17:43:44;20.40;99.90
29241;DHT22;16268;49.880;8.648;2022-09-13T17:46:16;20.40;99.90
29241;DHT22;16268;49.880;8.648;2022-09-13T17:48:43;20.40;99.90
29241;DHT22;16268;49.880;8.648;2022-09-13T17:51:11;20.50;99.90
29241;DHT22;16268;49.880;8.648;2022-09-13T17:53:38;20.30;99.90
29241;DHT22;16268;49.880;8.648;2022-09-13T17:56:05;20.30;99.90
29241;DHT22;16268;49.880;8.648;2022-09-13T17:58:32;20.20;99.90
29241;DHT22;16268;49.880;8.648;2022-09-13T18:01:07;20.20;99.90
29241;DHT22;16268;49.880;8.648;2022-09-13T18:03:33;20.20;99.90
29241;DHT22;16268;49.880;8.648;2022-09-13T18:06:01;20.20;99.90
29241;DHT22;16268;49.880;8.648;2022-09-13T18:08:29;20.00;99.90
29241;DHT22;16268;49.880;8.648;2022-09-13T18:11:01;20.00;99.90
29241;DHT22;16268;49.880;8.648;2022-09-13T18:13:27;20.10;99.90
29241;DHT22;16268;49.880;8.648;2022-09-13T18:16:08;20.10;99.90
29241;DHT22;16268;49.880;8.648;2022-09-13T18:18:35;20.10;99.90
29241;DHT22;16268;49.880;8.648;2022-09-13T18:21:01;20.00;99.90
29241;DHT22;16268;49.880;8.648;2022-09-13T18:23:26;20.00;99.90
29241;DHT22;16268;49.880;8.648;2022-09-13T18:26:02;20.10;99.90
29241;DHT22;16268;49.880;8.648;2022-09-13T18:28:29;20.00;99.90
29241;DHT22;16268;49.880;8.648;2022-09-13T18:30:59;19.90;99.90
29241;DHT22;16268;49.880;8.648;2022-09-13T18:33:26;19.80;99.90
29241;DHT22;16268;49.880;8.648;2022-09-13T18:36:03;19.70;99.90
29241;DHT22;16268;49.880;8.648;2022-09-13T18:38:34;19.60;99.90
29241;DHT22;16268;49.880;8.648;2022-09-13T18:41:12;19.50;99.90
29241;DHT22;16268;49.880;8.648;2022-09-13T18:43:39;19.60;99.90
29241;DHT22;16268;49.880;8.648;2022-09-13T18:46:07;19.50;99.90